createdAt,value
2022-09-07T19:57:35.457Z,95731.38
2022-09-07T19:58:41.826Z,95738.88
2022-09-07T19:59:45.789Z,95740.53
2022-09-07T20:00:50.612Z,95731.41
2022-09-07T20:01:53.911Z,95732.25
2022-09-07T20:02:58.553Z,95733.91
2022-09-07T20:04:03.364Z,95731.41
2022-09-07T20:05:08.761Z,95727.53
2022-09-07T20:06:12.638Z,95728.66
2022-09-07T20:07:17.469Z,95724.88
2022-09-07T20:08:19.445Z,95722.97
2022-09-07T20:09:25.122Z,95724.94
2022-09-07T20:10:30.890Z,95726.59
2022-09-07T20:11:35.995Z,95720.53
2022-09-07T20:12:40.975Z,95732.16
2022-09-07T20:13:43.643Z,95724.78
2022-09-07T20:14:48.270Z,95728.13
2022-09-07T20:15:50.349Z,95722.91
2022-09-07T20:16:55.122Z,95730.41
2022-09-07T20:17:57.172Z,95727.41
2022-09-07T20:19:02.515Z,95728.22
2022-09-07T20:20:05.786Z,95725.34
2022-09-07T20:21:13.185Z,95723.84
2022-09-07T20:22:15.154Z,95721.09
2022-09-07T20:23:19.793Z,95719.19
2022-09-07T20:24:22.919Z,95723.34
2022-09-07T20:25:27.562Z,95713.41
2022-09-07T20:26:32.862Z,95711.75
2022-09-07T20:27:38.319Z,95716.31
2022-09-07T20:28:41.148Z,95711.78
2022-09-07T20:29:45.786Z,95707.91
2022-09-07T20:30:47.826Z,95709.84
2022-09-07T20:31:53.674Z,95694.63
2022-09-07T20:32:58.679Z,95697.56
2022-09-07T20:34:00.689Z,95698.50
2022-09-07T20:35:05.335Z,95698.50
2022-09-07T20:36:09.595Z,95695.34
2022-09-07T20:37:14.200Z,95684.97
2022-09-07T20:38:17.407Z,95684.41
2022-09-07T20:39:23.360Z,95679.69
2022-09-07T20:40:25.433Z,95678.03
2022-09-07T20:41:32.516Z,95669.44
2022-09-07T20:42:40.727Z,95670.69
2022-09-07T20:43:42.827Z,95664.91
2022-09-07T20:44:47.444Z,95660.91
2022-09-07T20:45:49.815Z,95670.97
2022-09-07T20:46:55.055Z,95663.91
2022-09-07T20:47:57.065Z,95665.72
2022-09-07T20:49:02.016Z,95661.75
2022-09-07T20:50:07.261Z,95662.16
2022-09-07T20:51:13.090Z,95655.53
2022-09-07T20:52:17.668Z,95665.38
2022-09-07T20:53:19.742Z,95671.44
2022-09-07T20:54:24.419Z,95662.03
2022-09-07T20:55:26.383Z,95662.22
2022-09-07T20:56:32.166Z,95668.41
2022-09-07T20:57:38.032Z,95669.25
2022-09-07T20:58:43.456Z,95669.41
2022-09-07T20:59:45.481Z,95674.78
2022-09-07T21:00:53.284Z,95671.44
2022-09-07T21:01:55.347Z,95672.94
2022-09-07T21:02:59.960Z,95675.84
2022-09-07T21:04:02.448Z,95678.63
2022-09-07T21:05:07.936Z,95674.47
2022-09-07T21:06:10.567Z,95678.09
2022-09-07T21:07:15.168Z,95675.59
2022-09-07T21:08:17.285Z,95676.72
2022-09-07T21:09:22.135Z,95670.91
2022-09-07T21:10:24.470Z,95673.97
2022-09-07T21:11:31.372Z,95667.06
2022-09-07T21:12:33.422Z,95660.28
2022-09-07T21:13:40.907Z,95666.25
2022-09-07T21:14:46.129Z,95658.63
2022-09-07T21:15:48.250Z,95660.41
2022-09-07T21:16:53.074Z,95653.50
2022-09-07T21:17:55.058Z,95664.03
2022-09-07T21:19:01.862Z,95658.78
2022-09-07T21:20:04.628Z,95666.78
2022-09-07T21:21:24.950Z,95658.22
2022-09-07T21:22:26.917Z,95660.69
2022-09-07T21:23:32.664Z,95668.75
2022-09-07T21:24:34.782Z,95666.13
2022-09-07T21:25:47.825Z,95663.63
2022-09-07T21:26:51.180Z,95669.03
2022-09-07T21:27:55.681Z,95672.47
2022-09-07T21:29:02.022Z,95667.22
2022-09-07T21:30:07.548Z,95668.06
2022-09-07T21:31:09.866Z,95677.03
2022-09-07T21:32:14.651Z,95672.78
2022-09-07T21:33:16.844Z,95678.16
2022-09-07T21:34:21.453Z,95682.00
2022-09-07T21:35:24.159Z,95680.66
2022-09-07T21:36:29.508Z,95683.66
2022-09-07T21:37:31.836Z,95689.19
2022-09-07T21:38:37.405Z,95695.56
2022-09-07T21:39:39.433Z,95697.63
2022-09-07T21:40:44.062Z,95697.63
2022-09-07T21:41:46.089Z,95706.50
2022-09-07T21:42:50.700Z,95708.59
2022-09-07T21:43:57.760Z,95710.34
2022-09-07T21:45:07.159Z,95723.50
2022-09-07T21:46:11.064Z,95723.78
2022-09-07T21:47:15.899Z,95723.78
2022-09-07T21:48:18.279Z,95720.47
2022-09-07T21:49:22.979Z,95725.03
2022-09-07T21:50:24.942Z,95722.69
2022-09-07T21:51:30.153Z,95719.38
2022-09-07T21:52:32.158Z,95721.28
2022-09-07T21:53:37.282Z,95721.56
2022-09-07T21:54:39.275Z,95725.72
2022-09-07T21:55:43.962Z,95729.63
2022-09-07T21:56:46.778Z,95732.25
2022-09-07T21:57:51.661Z,95730.44
2022-09-07T21:58:55.179Z,95730.44
2022-09-07T21:59:59.859Z,95728.91
2022-09-07T22:01:24.339Z,95727.53
2022-09-07T22:02:26.421Z,95724.75
2022-09-07T22:03:31.139Z,95718.81
2022-09-07T22:04:33.194Z,95718.69
2022-09-07T22:05:39.317Z,95719.66
2022-09-07T22:06:41.575Z,95720.47
2022-09-07T22:07:48.937Z,95715.22
2022-09-07T22:08:51.265Z,95707.06
2022-09-07T22:09:55.868Z,95703.63
2022-09-07T22:11:04.398Z,95701.13
2022-09-07T22:12:09.481Z,95698.63
2022-09-07T22:13:11.923Z,95698.75
2022-09-07T22:14:16.832Z,95692.97
2022-09-07T22:15:18.951Z,95702.50
2022-09-07T22:16:26.481Z,95692.00
2022-09-07T22:17:28.584Z,95692.97
2022-09-07T22:18:33.536Z,95696.41
2022-09-07T22:19:39.610Z,95692.97
2022-09-07T22:20:41.721Z,95692.97
2022-09-07T22:21:46.342Z,95693.66
2022-09-07T22:22:48.383Z,95684.13
2022-09-07T22:23:55.772Z,95686.19
2022-09-07T22:24:57.909Z,95678.97
2022-09-07T22:26:02.714Z,95684.22
2022-09-07T22:27:05.133Z,95674.00
2022-09-07T22:28:09.769Z,95679.66
2022-09-07T22:29:12.594Z,95680.94
2022-09-07T22:30:17.311Z,95687.00
2022-09-07T22:31:21.496Z,95678.16
2022-09-07T22:32:28.843Z,95670.44
2022-09-07T22:33:30.895Z,95670.97
2022-09-07T22:34:35.568Z,95663.22
2022-09-07T22:35:37.609Z,95661.72
2022-09-07T22:36:44.488Z,95653.28
2022-09-07T22:37:46.580Z,95661.59
2022-09-07T22:38:52.611Z,95646.94
2022-09-07T22:39:57.311Z,95650.50
2022-09-07T22:41:07.273Z,95648.84
2022-09-07T22:42:12.140Z,95647.06
2022-09-07T22:43:14.176Z,95646.09
2022-09-07T22:44:21.053Z,95637.22
2022-09-07T22:45:23.114Z,95626.06
2022-09-07T22:46:29.767Z,95624.25
2022-09-07T22:47:41.943Z,95625.47
2022-09-07T22:48:47.143Z,95627.56
2022-09-07T22:49:49.192Z,95629.75
2022-09-07T22:50:57.725Z,95629.34
2022-09-07T22:52:02.397Z,95623.13
2022-09-07T22:53:04.385Z,95626.16
2022-09-07T22:54:09.501Z,95627.13
2022-09-07T22:55:12.499Z,95618.72
2022-09-07T22:56:19.216Z,95609.59
2022-09-07T22:57:21.269Z,95607.94
2022-09-07T22:58:29.022Z,95597.16
2022-09-07T22:59:33.727Z,95599.22
2022-09-07T23:00:36.458Z,95594.81
2022-09-07T23:01:41.878Z,95587.19
2022-09-07T23:02:46.808Z,95591.63
2022-09-07T23:03:52.023Z,95589.16
2022-09-07T23:04:54.347Z,95594.69
2022-09-07T23:06:00.700Z,95583.47
2022-09-07T23:07:03.184Z,95572.28
2022-09-07T23:08:08.227Z,95569.81
2022-09-07T23:09:15.018Z,95572.56
2022-09-07T23:10:17.685Z,95571.22
2022-09-07T23:11:24.259Z,95583.47
2022-09-07T23:12:26.273Z,95582.53
2022-09-07T23:13:31.138Z,95575.59
2022-09-07T23:14:36.158Z,95587.91
2022-09-07T23:15:38.161Z,95581.97
2022-09-07T23:16:42.901Z,95576.47
2022-09-07T23:17:47.656Z,95578.22
2022-09-07T23:18:52.716Z,95574.09
2022-09-07T23:19:54.738Z,95579.34
2022-09-07T23:21:00.898Z,95576.72
2022-09-07T23:22:02.948Z,95582.13
2022-09-07T23:23:07.652Z,95582.13
2022-09-07T23:24:12.129Z,95580.47
2022-09-07T23:25:16.946Z,95583.94
2022-09-07T23:26:19.892Z,95579.91
2022-09-07T23:27:24.946Z,95575.63
2022-09-07T23:28:27.234Z,95580.88
2022-09-07T23:29:31.878Z,95585.31
2022-09-07T23:30:35.799Z,95573.72
2022-09-07T23:31:40.849Z,95581.31
2022-09-07T23:32:42.897Z,95576.88
2022-09-07T23:33:50.272Z,95577.69
2022-09-07T23:34:52.313Z,95576.47
2022-09-07T23:36:01.983Z,95574.50
2022-09-07T23:37:04.269Z,95576.44
2022-09-07T23:38:09.012Z,95572.44
2022-09-07T23:39:11.233Z,95583.91
2022-09-07T23:40:16.752Z,95581.97
2022-09-07T23:41:18.822Z,95571.75
2022-09-07T23:42:23.421Z,95572.59
2022-09-07T23:43:27.437Z,95571.75
2022-09-07T23:44:32.129Z,95566.78
2022-09-07T23:45:34.144Z,95568.03
2022-09-07T23:46:38.917Z,95566.66
2022-09-07T23:47:41.135Z,95562.91
2022-09-07T23:48:46.532Z,95566.78
2022-09-07T23:49:51.279Z,95563.06
2022-09-07T23:50:56.304Z,95568.16
2022-09-07T23:51:58.443Z,95561.28
2022-09-07T23:53:03.420Z,95567.09
2022-09-07T23:54:05.666Z,95565.31
2022-09-07T23:55:11.882Z,95562.41
2022-09-07T23:56:13.924Z,95559.22
2022-09-07T23:57:18.530Z,95560.19
2022-09-07T23:58:22.002Z,95563.47
2022-09-07T23:59:26.684Z,95571.78
